Time;durP1;ratioP1;P1;durP2;ratioP2;P2;SDS_P1;SDS_P2;PMS_P1;PMS_P2;Temp;Humidity;BMP_temperature;BMP_pressure;BME280_temperature;BME280_humidity;BME280_pressure;Samples;Min_cycle;Max_cycle;Signal;HPM_P1;HPM_P2
2024/05/08 00:01:04;;;;;;;10.17;6.57;;;7.80;1.00;;;;;;10707680;27;20303;-84
2024/05/08 00:06:25;;;;;;;12.13;7.40;;;7.80;1.00;;;;;;10791454;27;20344;-83
2024/05/08 00:11:47;;;;;;;13.33;7.73;;;7.70;1.00;;;;;;10780498;27;20341;-85
2024/05/08 00:17:08;;;;;;;15.50;7.80;;;7.60;1.00;;;;;;10742607;27;20230;-84
2024/05/08 00:22:30;;;;;;;16.20;8.27;;;7.70;1.00;;;;;;10775438;27;20283;-84
2024/05/08 00:27:52;;;;;;;11.47;7.37;;;7.60;1.00;;;;;;10773740;27;20232;-83
2024/05/08 00:33:14;;;;;;;10.87;7.03;;;7.50;1.00;;;;;;10745329;27;20260;-84
2024/05/08 00:38:35;;;;;;;12.90;6.40;;;7.40;1.00;;;;;;10721444;27;20323;-84
2024/05/08 00:43:57;;;;;;;10.77;6.47;;;7.40;1.00;;;;;;10743064;27;20246;-84
2024/05/08 00:49:36;;;;;;;11.13;7.37;;;7.50;1.00;;;;;;10720083;27;20255;-84
2024/05/08 00:54:59;;;;;;;12.10;6.30;;;7.50;99.90;;;;;;10767178;27;20377;-84
2024/05/08 01:00:21;;;;;;;10.37;6.87;;;7.50;1.00;;;;;;10785900;27;20355;-84
2024/05/08 01:05:46;;;;;;;11.20;6.57;;;7.50;1.00;;;;;;10812379;27;20228;-84
2024/05/08 01:11:07;;;;;;;12.13;6.33;;;7.40;1.00;;;;;;10818441;27;20373;-84
2024/05/08 01:16:29;;;;;;;12.03;7.10;;;7.40;1.00;;;;;;10823671;27;20353;-84
2024/05/08 01:21:50;;;;;;;15.83;8.37;;;7.30;1.00;;;;;;10744140;27;20268;-84
2024/05/08 01:27:12;;;;;;;13.50;8.03;;;;;;;;;;10720760;27;20239;-84
2024/05/08 01:32:34;;;;;;;15.43;7.60;;;7.00;1.00;;;;;;10697699;27;20221;-84
2024/05/08 01:37:55;;;;;;;12.63;7.60;;;6.90;1.00;;;;;;10825512;27;20243;-84
2024/05/08 01:43:17;;;;;;;12.50;6.90;;;6.80;1.00;;;;;;10828713;27;20284;-86
2024/05/08 01:48:38;;;;;;;11.47;6.80;;;6.90;1.00;;;;;;10828659;27;20249;-85
2024/05/08 01:54:00;;;;;;;9.73;5.93;;;6.80;1.00;;;;;;10825269;27;20318;-84
2024/05/08 01:59:22;;;;;;;7.73;5.73;;;6.80;1.00;;;;;;10828578;27;20281;-84
2024/05/08 02:04:43;;;;;;;9.10;5.70;;;6.90;1.00;;;;;;10843131;27;20523;-85
2024/05/08 02:10:06;;;;;;;8.27;5.40;;;6.90;1.00;;;;;;10815953;27;20257;-85
2024/05/08 02:15:34;;;;;;;8.57;5.83;;;6.80;1.00;;;;;;10698180;27;20227;-84
2024/05/08 02:20:56;;;;;;;9.67;6.40;;;6.70;1.00;;;;;;10785036;27;20227;-85
2024/05/08 02:26:17;;;;;;;11.33;6.27;;;6.60;1.00;;;;;;10786644;27;20480;-84
2024/05/08 02:31:41;;;;;;;9.23;5.80;;;6.60;1.00;;;;;;10781899;27;20237;-84
2024/05/08 02:37:22;;;;;;;9.30;6.00;;;6.70;1.00;;;;;;10848034;27;20252;-84
2024/05/08 02:42:43;;;;;;;8.67;6.03;;;6.60;1.00;;;;;;10855104;27;20499;-85
2024/05/08 02:48:06;;;;;;;7.40;5.43;;;6.60;1.00;;;;;;10878450;27;20343;-84
2024/05/08 02:53:27;;;;;;;7.50;5.70;;;6.70;6.00;;;;;;10787261;27;20336;-84
2024/05/08 02:58:49;;;;;;;7.93;5.73;;;6.70;6.30;;;;;;10717448;27;20425;-84
2024/05/08 03:04:10;;;;;;;8.63;5.67;;;6.60;1.00;;;;;;10794242;27;20244;-85
2024/05/08 03:09:32;;;;;;;9.63;6.80;;;6.70;1.00;;;;;;10808956;27;20241;-85
2024/05/08 03:14:54;;;;;;;8.67;6.07;;;6.60;1.00;;;;;;10812323;27;20260;-84
2024/05/08 03:20:16;;;;;;;8.97;5.83;;;6.50;8.70;;;;;;10809326;27;20271;-84
2024/05/08 03:25:38;;;;;;;12.00;6.47;;;6.50;1.00;;;;;;10768622;27;20322;-85
2024/05/08 03:31:04;;;;;;;10.30;6.80;;;6.40;28.80;;;;;;10795121;27;20268;-84
2024/05/08 03:36:26;;;;;;;11.27;6.83;;;6.40;27.80;;;;;;10763895;27;20240;-86
2024/05/08 03:41:48;;;;;;;11.67;7.17;;;6.40;73.40;;;;;;10814548;27;20222;-85
2024/05/08 03:47:09;;;;;;;11.47;7.40;;;6.40;89.00;;;;;;10786272;27;20260;-84
2024/05/08 03:52:31;;;;;;;11.53;7.40;;;6.40;99.90;;;;;;10786826;27;20287;-84
2024/05/08 03:57:53;;;;;;;13.10;7.33;;;6.50;99.90;;;;;;10780064;27;20251;-85
2024/05/08 04:03:15;;;;;;;10.30;5.93;;;6.70;99.90;;;;;;10790313;27;20264;-84
2024/05/08 04:08:41;;;;;;;9.60;6.57;;;6.90;99.90;;;;;;10776723;27;20245;-84
2024/05/08 04:14:02;;;;;;;12.50;5.87;;;7.00;99.90;;;;;;10771550;27;20234;-85
2024/05/08 04:19:23;;;;;;;7.80;5.40;;;7.00;99.90;;;;;;10795363;27;20254;-85
2024/05/08 04:24:45;;;;;;;9.00;5.53;;;7.10;99.90;;;;;;10786829;27;20245;-84
2024/05/08 04:30:08;;;;;;;7.03;5.07;;;7.20;99.90;;;;;;10699527;27;20224;-86
2024/05/08 04:35:31;;;;;;;7.80;5.10;;;7.20;99.90;;;;;;10717138;27;20224;-85
2024/05/08 04:40:53;;;;;;;7.60;4.97;;;7.40;99.90;;;;;;10694180;27;20264;-83
2024/05/08 04:46:15;;;;;;;10.50;6.13;;;7.60;99.90;;;;;;10716605;27;20232;-83
2024/05/08 04:51:37;;;;;;;7.53;5.60;;;7.60;99.90;;;;;;10765355;27;20248;-86
2024/05/08 04:56:58;;;;;;;8.97;5.37;;;7.80;99.90;;;;;;10795519;27;20281;-84
2024/05/08 05:02:19;;;;;;;8.77;6.03;;;7.90;99.90;;;;;;10788741;27;20244;-83
2024/05/08 05:07:41;;;;;;;12.83;7.93;;;8.10;99.90;;;;;;10812538;27;20261;-86
2024/05/08 05:13:02;;;;;;;14.57;7.87;;;8.30;99.90;;;;;;10770964;27;20254;-86
2024/05/08 05:18:24;;;;;;;9.30;5.80;;;8.40;99.90;;;;;;10798405;27;20276;-85
2024/05/08 05:23:46;;;;;;;10.43;5.57;;;8.50;99.90;;;;;;10811509;27;20226;-84
2024/05/08 05:29:08;;;;;;;8.73;5.20;;;8.70;99.90;;;;;;10788334;27;20279;-85
2024/05/08 05:34:29;;;;;;;6.90;4.70;;;8.80;99.90;;;;;;10811798;27;20216;-83
2024/05/08 05:39:51;;;;;;;7.67;3.93;;;9.10;99.90;;;;;;10785125;27;20548;-85
2024/05/08 05:50:54;;;;;;;5.50;3.23;;;9.30;1.00;;;;;;10811510;27;20220;-86
2024/05/08 05:56:15;;;;;;;8.57;3.63;;;9.50;1.00;;;;;;10786719;27;20266;-84
2024/05/08 06:01:43;;;;;;;3.60;3.17;;;9.70;1.00;;;;;;10782723;27;20242;-86
2024/05/08 06:07:08;;;;;;;7.57;4.53;;;9.90;1.00;;;;;;10843887;27;20333;-85
2024/05/08 06:12:30;;;;;;;8.13;4.03;;;10.20;1.00;;;;;;10807975;27;20253;-84
2024/05/08 06:17:51;;;;;;;4.83;3.17;;;10.60;1.00;;;;;;10812697;27;20256;-85
2024/05/08 06:23:13;;;;;;;7.70;3.30;;;11.10;1.00;;;;;;10772094;27;20305;-85
2024/05/08 06:28:34;;;;;;;5.57;2.53;;;11.50;1.00;;;;;;10761861;27;20241;-85
2024/05/08 06:33:56;;;;;;;3.58;2.67;;;11.90;1.00;;;;;;10782568;27;20262;-86
2024/05/08 06:39:18;;;;;;;4.45;3.00;;;12.60;1.00;;;;;;10781600;27;20413;-84
2024/05/08 06:44:39;;;;;;;2.45;2.15;;;13.20;1.00;;;;;;10809552;27;20232;-87
2024/05/08 06:50:02;;;;;;;5.35;2.90;;;13.90;1.00;;;;;;10784842;27;20257;-84
2024/05/08 06:55:27;;;;;;;3.90;2.20;;;15.00;1.00;;;;;;10780679;27;20385;-84
2024/05/08 07:00:49;;;;;;;4.03;2.50;;;15.70;1.00;;;;;;10800513;27;20264;-86
2024/05/08 07:06:12;;;;;;;2.53;1.98;;;16.40;99.90;;;;;;10784725;27;20324;-86
2024/05/08 07:11:37;;;;;;;2.45;1.80;;;16.90;99.90;;;;;;10757308;27;20278;-86
2024/05/08 07:16:58;;;;;;;2.47;1.83;;;17.30;99.90;;;;;;10826479;27;20462;-86
2024/05/08 07:22:21;;;;;;;2.70;2.00;;;17.80;99.90;;;;;;10784369;27;20266;-90
2024/05/08 07:27:43;;;;;;;3.30;2.17;;;18.00;99.90;;;;;;10732600;27;20258;-91
2024/05/08 07:33:07;;;;;;;2.55;1.90;;;18.30;99.90;;;;;;10783101;27;20267;-90
2024/05/08 07:38:30;;;;;;;4.90;2.38;;;18.30;99.90;;;;;;10783481;27;20343;-81
2024/05/08 07:43:51;;;;;;;2.70;2.03;;;18.80;99.90;;;;;;10774729;27;20455;-88
2024/05/08 07:49:13;;;;;;;2.15;1.90;;;19.30;99.90;;;;;;10803186;27;20239;-84
2024/05/08 07:54:35;;;;;;;2.75;2.15;;;19.70;99.90;;;;;;10748880;27;20439;-84
2024/05/08 07:59:56;;;;;;;4.97;2.15;;;19.80;99.90;;;;;;10743510;27;20235;-80
2024/05/08 08:05:18;;;;;;;8.82;3.88;;;19.70;99.90;;;;;;10783282;27;20391;-79
2024/05/08 08:10:39;;;;;;;4.07;2.72;;;19.80;99.90;;;;;;10783150;27;20322;-80
2024/05/08 08:16:01;;;;;;;4.07;2.40;;;19.50;99.90;;;;;;10807046;27;20238;-87
2024/05/08 08:21:22;;;;;;;8.05;4.75;;;19.40;99.90;;;;;;10755789;27;20231;-83
2024/05/08 08:26:44;;;;;;;3.72;2.00;;;19.80;99.90;;;;;;10759693;27;20269;-82
2024/05/08 08:32:05;;;;;;;3.70;1.70;;;20.10;99.90;;;;;;10790252;27;20662;-82
2024/05/08 08:37:27;;;;;;;6.07;2.13;;;20.20;99.90;;;;;;10779417;27;20286;-83
2024/05/08 08:42:49;;;;;;;4.78;1.88;;;20.60;99.90;;;;;;10783459;27;20458;-83
2024/05/08 08:48:11;;;;;;;4.75;2.47;;;21.10;99.90;;;;;;10726409;27;20309;-81
2024/05/08 08:53:33;;;;;;;5.13;2.40;;;21.30;99.90;;;;;;10754908;27;20227;-88
2024/05/08 08:58:57;;;;;;;3.10;1.80;;;21.20;99.90;;;;;;10749848;27;20321;-83
2024/05/08 09:04:19;;;;;;;2.80;1.38;;;21.30;99.90;;;;;;10781516;27;20270;-83
2024/05/08 09:09:40;;;;;;;2.25;1.70;;;21.40;99.90;;;;;;10744174;27;20322;-80
2024/05/08 09:15:08;;;;;;;14.10;2.95;;;21.40;99.90;;;;;;10795354;27;20247;-81
2024/05/08 09:20:30;;;;;;;4.32;1.77;;;21.40;99.90;;;;;;10744922;27;20273;-81
2024/05/08 09:25:59;;;;;;;2.55;1.90;;;21.50;99.90;;;;;;10750117;27;20262;-80
2024/05/08 09:31:21;;;;;;;4.35;1.90;;;21.80;99.90;;;;;;10757662;27;20275;-80
2024/05/08 09:36:43;;;;;;;5.07;2.38;;;22.10;99.90;;;;;;10804906;27;20223;-86
2024/05/08 09:42:06;;;;;;;4.40;2.22;;;22.20;99.90;;;;;;10795821;27;20323;-82
2024/05/08 09:47:35;;;;;;;3.72;1.90;;;22.20;99.90;;;;;;10785943;27;20242;-81
2024/05/08 09:52:59;;;;;;;3.20;1.80;;;22.30;99.90;;;;;;10797042;27;20243;-81
2024/05/08 09:58:22;;;;;;;3.60;1.65;;;22.80;99.90;;;;;;10789833;27;20400;-86
2024/05/08 10:03:44;;;;;;;3.08;1.73;;;22.80;99.90;;;;;;10838255;27;20473;-85
2024/05/08 10:09:11;;;;;;;4.05;1.60;;;23.00;99.90;;;;;;10772294;27;20514;-82
2024/05/08 10:14:34;;;;;;;2.55;1.60;;;23.70;99.90;;;;;;10752670;27;20653;-83
2024/05/08 10:19:56;;;;;;;5.93;3.67;;;23.70;99.90;;;;;;10692496;27;20530;-82
2024/05/08 10:25:21;;;;;;;2.85;1.92;;;23.30;99.90;;;;;;10777784;27;20242;-82
2024/05/08 10:30:42;;;;;;;4.07;1.88;;;22.20;99.90;;;;;;10751123;27;20228;-81
2024/05/08 10:36:06;;;;;;;2.33;1.98;;;22.30;99.90;;;;;;10739447;27;20352;-81
2024/05/08 10:41:30;;;;;;;6.07;1.75;;;22.60;99.90;;;;;;10802805;27;20258;-82
2024/05/08 10:46:55;;;;;;;2.20;1.98;;;23.30;99.90;;;;;;10775691;27;20230;-92
2024/05/08 10:52:24;;;;;;;8.27;3.38;;;23.70;99.90;;;;;;10773243;27;20287;-82
2024/05/08 10:57:50;;;;;;;3.75;2.30;;;23.20;99.90;;;;;;10703660;27;20250;-81
2024/05/08 11:03:14;;;;;;;3.30;1.83;;;23.00;99.90;;;;;;10779127;27;20275;-82
2024/05/08 11:08:36;;;;;;;11.48;6.80;;;23.00;99.90;;;;;;10743255;27;20262;-81
2024/05/08 11:13:58;;;;;;;2.20;1.92;;;22.70;99.90;;;;;;10676746;27;20266;-80
2024/05/08 11:19:19;;;;;;;1.90;1.70;;;22.00;99.90;;;;;;10669718;27;20512;-82
2024/05/08 11:24:41;;;;;;;2.90;1.75;;;22.20;99.90;;;;;;10664193;27;20244;-80
2024/05/08 11:30:03;;;;;;;12.38;6.00;;;22.50;99.90;;;;;;10666666;27;20484;-79
2024/05/08 11:35:26;;;;;;;4.05;1.80;;;22.10;99.90;;;;;;10669292;27;20233;-84
2024/05/08 11:40:47;;;;;;;2.35;1.50;;;22.70;99.90;;;;;;10667481;27;20449;-79
2024/05/08 11:46:09;;;;;;;3.60;1.77;;;23.10;99.90;;;;;;10648798;27;20292;-81
2024/05/08 11:51:31;;;;;;;3.97;1.52;;;22.70;99.90;;;;;;10677171;27;20264;-81
2024/05/08 11:56:52;;;;;;;9.32;6.25;;;21.80;99.90;;;;;;10670283;27;20387;-82
2024/05/08 12:02:16;;;;;;;3.50;1.85;;;21.90;99.90;;;;;;10664691;27;20268;-82
2024/05/08 12:07:38;;;;;;;4.07;1.52;;;22.40;99.90;;;;;;10657152;27;20253;-81
2024/05/08 12:12:59;;;;;;;1.98;1.40;;;22.40;99.90;;;;;;10644124;27;20361;-81
2024/05/08 12:18:21;;;;;;;3.45;1.55;;;21.50;99.90;;;;;;10634189;27;20229;-80
2024/05/08 12:23:42;;;;;;;2.28;1.40;;;21.00;99.90;;;;;;10670325;27;20317;-81
2024/05/08 12:29:04;;;;;;;3.83;1.42;;;20.90;99.90;;;;;;10647315;27;20486;-79
2024/05/08 12:34:29;;;;;;;4.50;1.70;;;21.20;99.90;;;;;;10665615;27;20268;-80
2024/05/08 12:39:52;;;;;;;1.55;1.38;;;21.30;99.90;;;;;;10671669;27;20225;-84
2024/05/08 12:45:14;;;;;;;4.63;1.63;;;21.30;99.90;;;;;;10670389;27;20552;-82
2024/05/08 12:50:36;;;;;;;2.28;1.40;;;21.70;99.90;;;;;;10688866;27;20244;-80
2024/05/08 12:55:57;;;;;;;3.67;1.67;;;21.90;99.90;;;;;;10645592;27;20352;-86
2024/05/08 13:01:19;;;;;;;5.10;1.60;;;21.70;99.90;;;;;;10666182;27;20405;-88
2024/05/08 13:06:41;;;;;;;2.33;1.45;;;21.30;99.90;;;;;;10651803;27;20269;-89
2024/05/08 13:12:03;;;;;;;2.28;1.33;;;21.00;99.90;;;;;;10650102;27;20325;-87
2024/05/08 13:17:25;;;;;;;2.03;1.35;;;21.00;99.90;;;;;;10649821;27;20268;-90
2024/05/08 13:22:48;;;;;;;2.72;1.40;;;20.60;99.90;;;;;;10695712;27;20571;-89
2024/05/08 13:28:11;;;;;;;6.25;1.75;;;19.80;99.90;;;;;;10741838;27;20244;-88
2024/05/08 13:33:33;;;;;;;2.58;1.40;;;19.90;99.90;;;;;;10742374;27;20244;-88
2024/05/08 13:38:55;;;;;;;3.15;1.77;;;20.00;99.90;;;;;;10761415;27;20308;-89
2024/05/08 13:44:19;;;;;;;4.15;1.60;;;20.00;99.90;;;;;;10685535;27;20261;-94
2024/05/08 13:49:41;;;;;;;5.05;2.05;;;19.90;99.90;;;;;;10748596;27;20333;-95
2024/05/08 13:55:03;;;;;;;3.42;1.90;;;19.70;99.90;;;;;;10738739;27;20339;-94
2024/05/08 14:00:25;;;;;;;7.70;3.20;;;19.70;99.90;;;;;;10743081;27;20232;-93
2024/05/08 14:05:48;;;;;;;17.38;9.95;;;19.80;99.90;;;;;;10724844;27;20236;-92
2024/05/08 14:11:10;;;;;;;3.88;2.47;;;19.70;99.90;;;;;;10786677;27;20274;-94
2024/05/08 14:16:32;;;;;;;10.13;5.25;;;19.60;99.90;;;;;;10790661;27;20278;-88
2024/05/08 14:21:53;;;;;;;5.15;3.10;;;19.40;99.90;;;;;;10822594;27;20306;-83
2024/05/08 14:27:16;;;;;;;3.15;2.38;;;19.10;99.90;;;;;;10803703;27;20300;-93
2024/05/08 14:32:38;;;;;;;2.05;1.70;;;18.80;99.90;;;;;;10728042;27;20248;-86
2024/05/08 14:38:00;;;;;;;6.63;3.60;;;18.70;99.90;;;;;;10697320;27;20544;-89
2024/05/08 14:43:22;;;;;;;4.13;2.47;;;18.60;99.90;;;;;;10740908;27;20289;-90
2024/05/08 14:48:46;;;;;;;2.55;2.00;;;18.40;99.90;;;;;;10829465;27;20282;-93
2024/05/08 14:54:09;;;;;;;2.70;1.80;;;18.10;99.90;;;;;;10790845;27;20247;-91
2024/05/08 14:59:45;;;;;;;3.65;1.65;;;18.10;99.90;;;;;;10782733;22;20260;-95
2024/05/08 15:05:30;;;;;;;2.47;1.52;;;18.00;99.90;;;;;;10709962;27;20300;-92
2024/05/08 15:10:52;;;;;;;1.70;1.60;;;18.10;99.90;;;;;;10616209;27;20398;-88
2024/05/08 15:16:14;;;;;;;2.45;1.85;;;18.00;99.90;;;;;;10605533;27;20250;-89
2024/05/08 15:21:36;;;;;;;3.65;1.60;;;17.60;99.90;;;;;;10548039;28;20353;-88
2024/05/08 15:26:57;;;;;;;3.33;1.52;;;17.50;99.90;;;;;;10582783;28;20280;-87
2024/05/08 15:32:19;;;;;;;6.57;2.20;;;17.40;99.90;;;;;;10613336;28;20234;-89
2024/05/08 15:37:40;;;;;;;2.50;1.55;;;17.30;99.90;;;;;;10591529;28;20458;-90
2024/05/08 15:43:03;;;;;;;2.00;1.50;;;17.20;99.90;;;;;;10590185;27;20283;-88
2024/05/08 15:48:25;;;;;;;3.65;1.60;;;17.10;99.90;;;;;;10613020;27;20276;-88
2024/05/08 15:53:46;;;;;;;2.10;1.52;;;17.00;99.90;;;;;;10639505;27;20245;-89
2024/05/08 15:59:10;;;;;;;2.38;1.52;;;16.90;99.90;;;;;;10614033;27;20349;-87
2024/05/08 16:04:31;;;;;;;1.63;1.23;;;16.70;99.90;;;;;;10644472;27;20339;-88
2024/05/08 16:09:53;;;;;;;3.47;1.42;;;16.60;99.90;;;;;;10619702;27;20289;-89
2024/05/08 16:15:15;;;;;;;3.50;1.88;;;16.40;99.90;;;;;;10563570;27;20277;-89
2024/05/08 16:20:42;;;;;;;2.67;1.73;;;16.30;99.90;;;;;;10611011;28;20351;-90
2024/05/08 16:26:04;;;;;;;4.05;1.60;;;16.20;99.90;;;;;;10611825;27;20248;-90
2024/05/08 16:31:26;;;;;;;3.78;1.50;;;16.00;99.90;;;;;;10623917;27;20327;-90
2024/05/08 16:36:50;;;;;;;3.35;2.42;;;15.80;99.90;;;;;;10651646;27;20236;-88
2024/05/08 16:42:12;;;;;;;2.70;2.28;;;15.60;99.90;;;;;;10677967;27;20333;-86
2024/05/08 16:47:35;;;;;;;2.25;1.63;;;15.50;99.90;;;;;;10539031;28;20481;-84
2024/05/08 16:52:56;;;;;;;3.67;2.42;;;15.30;99.90;;;;;;10588468;27;20285;-84
2024/05/08 16:58:18;;;;;;;4.50;2.63;;;15.30;99.90;;;;;;10610868;28;20225;-84
2024/05/08 17:03:40;;;;;;;5.95;2.25;;;15.20;99.90;;;;;;10592577;28;20244;-85
2024/05/08 17:09:02;;;;;;;9.63;4.95;;;15.00;99.90;;;;;;10606059;28;20291;-83
2024/05/08 17:14:23;;;;;;;6.00;3.28;;;15.00;99.90;;;;;;10609512;27;20229;-83
2024/05/08 17:19:45;;;;;;;9.45;3.65;;;14.70;99.90;;;;;;10609619;27;20285;-84
2024/05/08 17:25:06;;;;;;;4.13;3.10;;;14.60;99.90;;;;;;10605012;28;20269;-84
2024/05/08 17:30:30;;;;;;;4.75;2.92;;;14.70;99.90;;;;;;10608735;28;20346;-85
2024/05/08 17:35:52;;;;;;;5.72;3.58;;;14.50;99.90;;;;;;10583420;28;20237;-84
2024/05/08 17:41:14;;;;;;;5.05;2.47;;;14.50;99.90;;;;;;10609826;28;20365;-84
2024/05/08 17:46:38;;;;;;;6.35;3.33;;;14.40;99.90;;;;;;10608699;27;20246;-86
2024/05/08 17:52:00;;;;;;;7.30;3.75;;;14.20;99.90;;;;;;10610040;28;20304;-83
2024/05/08 17:57:22;;;;;;;7.10;4.53;;;14.10;99.90;;;;;;10544248;28;20338;-85
2024/05/08 18:02:44;;;;;;;13.02;4.25;;;13.90;99.90;;;;;;10544271;28;20232;-87
2024/05/08 18:08:07;;;;;;;5.35;3.60;;;13.80;99.90;;;;;;10496020;28;20246;-88
2024/05/08 18:13:28;;;;;;;5.03;4.13;;;13.60;99.90;;;;;;10518125;28;20259;-83
2024/05/08 18:18:50;;;;;;;5.82;3.75;;;13.50;99.90;;;;;;10604025;27;20249;-83
2024/05/08 18:24:14;;;;;;;11.30;7.45;;;13.40;99.90;;;;;;10609357;27;20272;-84
2024/05/08 18:29:37;;;;;;;14.07;8.55;;;13.30;99.90;;;;;;10603321;27;20239;-83
2024/05/08 18:34:58;;;;;;;11.90;6.60;;;13.20;99.90;;;;;;10608479;28;20263;-84
2024/05/08 18:40:20;;;;;;;8.07;4.95;;;12.90;99.90;;;;;;10607314;27;20458;-83
2024/05/08 18:45:45;;;;;;;9.52;5.22;;;12.90;99.90;;;;;;10594758;27;20575;-83
2024/05/08 18:51:10;;;;;;;9.38;5.28;;;12.80;99.90;;;;;;10569925;28;20272;-83
2024/05/08 18:56:32;;;;;;;10.10;5.63;;;12.60;99.90;;;;;;10580453;28;20237;-83
2024/05/08 19:01:53;;;;;;;5.15;3.72;;;12.50;99.90;;;;;;10643393;27;20281;-88
2024/05/08 19:07:14;;;;;;;6.25;3.88;;;12.30;99.90;;;;;;10674586;27;20331;-88
2024/05/08 19:12:36;;;;;;;6.97;3.83;;;12.20;99.90;;;;;;10605831;27;20286;-84
2024/05/08 19:17:57;;;;;;;4.95;3.25;;;12.10;99.90;;;;;;10583775;28;20253;-88
2024/05/08 19:23:19;;;;;;;6.40;3.17;;;11.90;99.90;;;;;;10603202;27;20454;-87
2024/05/08 19:28:40;;;;;;;6.43;4.60;;;11.90;99.90;;;;;;10606369;28;20330;-88
2024/05/08 19:34:02;;;;;;;15.00;7.05;;;11.70;99.90;;;;;;10602769;28;20264;-90
2024/05/08 19:39:24;;;;;;;12.50;7.40;;;11.60;99.90;;;;;;10605393;27;20264;-88
2024/05/08 19:44:46;;;;;;;13.47;6.27;;;11.60;99.90;;;;;;10607473;28;20372;-89
2024/05/08 19:50:07;;;;;;;12.43;6.22;;;11.50;99.90;;;;;;10599590;27;20357;-89
2024/05/08 19:55:34;;;;;;;13.23;6.47;;;11.40;99.90;;;;;;10580342;27;20508;-89
2024/05/08 20:00:57;;;;;;;11.00;6.13;;;11.30;99.90;;;;;;10613331;27;20312;-89
2024/05/08 20:06:21;;;;;;;11.63;6.37;;;11.30;99.90;;;;;;10608633;27;20280;-88
2024/05/08 20:11:42;;;;;;;11.50;6.47;;;11.20;99.90;;;;;;10636307;27;20224;-88
2024/05/08 20:17:05;;;;;;;9.80;5.20;;;11.10;99.90;;;;;;10671670;27;20234;-90
2024/05/08 20:22:27;;;;;;;11.37;5.10;;;10.90;99.90;;;;;;10590212;28;20225;-91
2024/05/08 20:27:52;;;;;;;10.80;6.30;;;10.80;99.90;;;;;;10610803;28;20303;-90
2024/05/08 20:33:13;;;;;;;15.43;7.67;;;10.80;99.90;;;;;;10584619;27;20249;-89
2024/05/08 20:38:35;;;;;;;14.87;7.97;;;10.80;99.90;;;;;;10612106;28;20222;-90
2024/05/08 20:43:56;;;;;;;13.87;7.90;;;10.80;99.90;;;;;;10611665;27;20268;-91
2024/05/08 20:49:18;;;;;;;15.90;7.23;;;10.70;99.90;;;;;;10584898;28;20321;-88
2024/05/08 20:54:39;;;;;;;13.83;7.50;;;10.70;99.90;;;;;;10563067;28;20244;-90
2024/05/08 21:00:01;;;;;;;14.47;6.67;;;10.60;99.90;;;;;;10602165;28;20249;-91
2024/05/08 21:05:22;;;;;;;11.67;6.27;;;10.60;99.90;;;;;;10589503;28;20492;-91
2024/05/08 21:10:44;;;;;;;13.73;6.73;;;10.50;99.90;;;;;;10610628;28;20241;-90
2024/05/08 21:16:06;;;;;;;9.30;6.10;;;10.40;99.90;;;;;;10651579;27;20353;-91
2024/05/08 21:21:28;;;;;;;10.20;5.33;;;10.30;99.90;;;;;;10654720;27;20260;-90
2024/05/08 21:26:50;;;;;;;7.80;5.10;;;10.30;99.90;;;;;;10606144;27;20353;-91
2024/05/08 21:32:12;;;;;;;16.50;8.23;;;10.20;99.90;;;;;;10610217;27;20312;-91
2024/05/08 21:37:33;;;;;;;21.70;12.73;;;10.10;99.90;;;;;;10611618;28;20323;-90
2024/05/08 21:42:55;;;;;;;24.90;16.23;;;10.00;99.90;;;;;;10584130;28;20241;-90
2024/05/08 21:48:16;;;;;;;26.37;14.23;;;9.90;99.90;;;;;;10602544;27;20287;-90
2024/05/08 21:53:38;;;;;;;21.50;12.13;;;9.80;99.90;;;;;;10588603;27;20305;-91
2024/05/08 21:58:59;;;;;;;19.80;10.20;;;9.70;99.90;;;;;;10663837;27;20279;-89
2024/05/08 22:04:21;;;;;;;14.40;9.43;;;9.70;99.90;;;;;;10578309;28;20338;-90
2024/05/08 22:09:42;;;;;;;17.43;10.33;;;9.60;99.90;;;;;;10501461;28;20268;-91
2024/05/08 22:15:04;;;;;;;31.10;16.07;;;9.60;99.90;;;;;;10542008;28;20237;-91
2024/05/08 22:20:26;;;;;;;34.20;16.97;;;9.50;99.90;;;;;;10542703;28;20511;-88
2024/05/08 22:25:49;;;;;;;21.57;12.07;;;9.40;99.90;;;;;;10550097;28;20246;-89
2024/05/08 22:31:12;;;;;;;20.23;11.10;;;9.20;99.90;;;;;;10455878;28;20253;-90
2024/05/08 22:36:35;;;;;;;20.23;9.83;;;;;;;;;;10500766;28;20474;-92
2024/05/08 22:41:56;;;;;;;15.67;8.80;;;8.90;99.90;;;;;;10478540;28;20260;-89
2024/05/08 22:47:18;;;;;;;13.73;7.33;;;8.80;99.90;;;;;;10504100;28;20343;-91
2024/05/08 22:52:39;;;;;;;11.37;6.50;;;8.80;99.90;;;;;;10414485;28;20269;-90
2024/05/08 22:58:01;;;;;;;13.23;5.87;;;8.80;99.90;;;;;;10472676;28;20239;-88
2024/05/08 23:03:22;;;;;;;13.43;6.43;;;8.70;99.90;;;;;;10542470;28;20352;-88
2024/05/08 23:08:44;;;;;;;14.70;7.83;;;8.70;99.90;;;;;;10525113;28;20281;-89
2024/05/08 23:21:01;;;;;;;15.67;7.47;;;8.40;99.90;;;;;;10508426;28;20237;-90
2024/05/08 23:26:23;;;;;;;15.27;8.20;;;8.40;99.90;;;;;;10486784;28;20234;-91
2024/05/08 23:38:40;;;;;;;12.97;7.73;;;;;;;;;;10507542;28;20272;-88
2024/05/08 23:44:02;;;;;;;14.60;8.33;;;8.10;99.90;;;;;;10500668;28;20255;-88
2024/05/08 23:49:24;;;;;;;18.77;7.10;;;8.20;99.90;;;;;;10519139;28;20237;-92
2024/05/08 23:54:45;;;;;;;9.87;6.07;;;8.00;99.90;;;;;;10462194;28;20271;-87
